createdAt,value
2024-04-18T00:01:26.316Z,2.59
2024-04-18T00:03:53.151Z,2.57
2024-04-18T00:06:19.926Z,2.56
2024-04-18T00:08:46.760Z,2.63
2024-04-18T00:11:13.501Z,2.58
2024-04-18T00:13:40.295Z,2.60
2024-04-18T00:16:07.083Z,2.58
2024-04-18T00:18:33.956Z,2.60
2024-04-18T00:21:00.653Z,2.61
2024-04-18T00:23:27.353Z,2.63
2024-04-18T00:25:54.015Z,2.64
2024-04-18T00:28:20.706Z,2.59
2024-04-18T00:30:47.989Z,2.50
2024-04-18T00:33:14.933Z,2.41
2024-04-18T00:35:41.889Z,2.37
2024-04-18T00:38:08.582Z,2.32
2024-04-18T00:40:35.392Z,2.28
2024-04-18T00:43:02.230Z,2.27
2024-04-18T00:45:28.983Z,2.18
2024-04-18T00:47:55.902Z,2.19
2024-04-18T00:50:22.997Z,2.08
2024-04-18T00:52:49.902Z,2.03
2024-04-18T00:55:17.311Z,1.99
2024-04-18T00:57:44.532Z,1.94
2024-04-18T01:00:12.139Z,1.82
2024-04-18T01:02:39.935Z,1.81
2024-04-18T01:05:06.943Z,1.75
2024-04-18T01:07:33.734Z,1.73
2024-04-18T01:10:00.531Z,1.76
2024-04-18T01:12:27.286Z,1.66
2024-04-18T01:14:54.024Z,1.60
2024-04-18T01:17:20.846Z,1.62
2024-04-18T01:19:47.617Z,1.59
2024-04-18T01:22:15.487Z,1.53
2024-04-18T01:24:42.523Z,1.43
2024-04-18T01:27:09.270Z,1.37
2024-04-18T01:29:36.030Z,1.46
2024-04-18T01:32:02.794Z,1.45
2024-04-18T01:34:29.658Z,1.38
2024-04-18T01:36:56.421Z,1.47
2024-04-18T01:39:24.503Z,1.49
2024-04-18T01:41:51.240Z,1.52
2024-04-18T01:44:17.989Z,1.54
2024-04-18T01:46:44.662Z,1.50
2024-04-18T01:49:11.446Z,1.36
2024-04-18T01:51:39.904Z,1.33
2024-04-18T01:54:06.767Z,1.25
2024-04-18T01:56:33.575Z,1.20
2024-04-18T01:59:05.429Z,1.18
2024-04-18T02:01:32.392Z,1.14
2024-04-18T02:03:59.481Z,1.15
2024-04-18T02:06:26.383Z,1.16
2024-04-18T02:08:56.905Z,1.09
2024-04-18T02:11:24.185Z,1.13
2024-04-18T02:13:50.908Z,1.06
2024-04-18T02:16:17.576Z,1.04
2024-04-18T02:18:44.368Z,1.05
2024-04-18T02:21:11.158Z,1.10
2024-04-18T02:23:37.920Z,1.24
2024-04-18T02:26:04.809Z,1.28
2024-04-18T02:28:31.638Z,1.29
2024-04-18T02:30:58.965Z,1.29
2024-04-18T02:33:25.812Z,1.25
2024-04-18T02:35:52.551Z,1.20
2024-04-18T02:38:19.313Z,1.18
2024-04-18T02:40:46.033Z,1.12
2024-04-18T02:43:12.767Z,1.15
2024-04-18T02:45:39.605Z,1.14
2024-04-18T02:48:06.646Z,1.22
2024-04-18T02:50:33.407Z,1.27
2024-04-18T02:53:00.090Z,1.39
2024-04-18T02:55:26.767Z,1.48
2024-04-18T02:57:56.018Z,1.59
2024-04-18T03:00:22.845Z,1.73
2024-04-18T03:02:52.425Z,1.79
2024-04-18T03:05:19.138Z,1.94
2024-04-18T03:07:45.859Z,2.02
2024-04-18T03:10:12.619Z,1.95
2024-04-18T03:12:39.498Z,1.92
2024-04-18T03:15:06.679Z,1.87
2024-04-18T03:17:33.470Z,1.81
2024-04-18T03:20:00.343Z,1.79
2024-04-18T03:22:27.940Z,1.70
2024-04-18T03:24:54.912Z,1.62
2024-04-18T03:27:21.724Z,1.44
2024-04-18T03:29:48.470Z,1.31
2024-04-18T03:32:16.409Z,1.21
2024-04-18T03:34:43.225Z,1.08
2024-04-18T03:37:10.025Z,1.05
2024-04-18T03:39:36.879Z,1.03
2024-04-18T03:42:03.718Z,0.97
2024-04-18T03:44:30.562Z,0.93
2024-04-18T03:46:57.297Z,0.85
2024-04-18T03:49:24.004Z,0.84
2024-04-18T03:51:50.769Z,0.81
2024-04-18T03:54:17.683Z,0.76
2024-04-18T03:56:44.433Z,0.76
2024-04-18T03:59:11.182Z,0.70
2024-04-18T04:01:38.167Z,0.71
2024-04-18T04:04:05.054Z,0.78
2024-04-18T04:06:33.609Z,0.77
2024-04-18T04:09:01.847Z,0.78
2024-04-18T04:11:29.274Z,0.79
2024-04-18T04:13:59.494Z,0.77
2024-04-18T04:16:30.458Z,0.76
2024-04-18T04:18:57.836Z,0.75
2024-04-18T04:21:27.382Z,0.72
2024-04-18T04:23:54.527Z,0.72
2024-04-18T04:26:21.287Z,0.71
2024-04-18T04:28:48.029Z,0.67
2024-04-18T04:31:14.793Z,0.62
2024-04-18T04:33:41.864Z,0.65
2024-04-18T04:36:08.643Z,0.66
2024-04-18T04:38:35.434Z,0.64
2024-04-18T04:41:02.179Z,0.65
2024-04-18T04:43:28.906Z,0.65
2024-04-18T04:45:56.130Z,0.66
2024-04-18T04:48:23.165Z,0.71
2024-04-18T04:51:00.913Z,0.75
2024-04-18T04:53:28.248Z,0.76
2024-04-18T04:55:57.180Z,0.80
2024-04-18T04:58:24.219Z,0.69
2024-04-18T05:00:51.380Z,0.85
2024-04-18T05:03:18.335Z,0.79
2024-04-18T05:05:45.543Z,0.94
2024-04-18T05:08:12.265Z,1.01
2024-04-18T05:10:46.317Z,1.04
2024-04-18T05:13:13.964Z,1.17
2024-04-18T05:15:41.061Z,1.20
2024-04-18T05:18:11.068Z,1.29
2024-04-18T05:20:39.368Z,1.35
2024-04-18T05:23:08.248Z,1.49
2024-04-18T05:25:35.628Z,1.72
2024-04-18T05:28:11.579Z,1.97
2024-04-18T05:30:58.034Z,2.34
2024-04-18T05:33:31.406Z,2.75
2024-04-18T05:35:58.438Z,3.09
2024-04-18T05:38:25.603Z,3.26
2024-04-18T05:40:52.922Z,3.13
2024-04-18T05:43:19.967Z,2.96
2024-04-18T05:45:48.359Z,2.87
2024-04-18T05:48:15.299Z,2.84
2024-04-18T05:50:43.068Z,2.88
2024-04-18T05:53:09.886Z,2.88
2024-04-18T05:55:36.636Z,2.90
2024-04-18T05:58:03.485Z,2.91
2024-04-18T06:00:30.189Z,2.97
2024-04-18T06:02:56.966Z,3.07
2024-04-18T06:05:23.739Z,3.17
2024-04-18T06:07:50.445Z,3.34
2024-04-18T06:10:18.213Z,3.63
2024-04-18T06:12:45.052Z,3.83
2024-04-18T06:15:11.845Z,3.99
2024-04-18T06:17:39.069Z,4.06
2024-04-18T06:20:06.515Z,4.12
2024-04-18T06:22:33.299Z,4.19
2024-04-18T06:25:00.301Z,4.32
2024-04-18T06:27:27.164Z,4.40
2024-04-18T06:29:54.318Z,4.60
2024-04-18T06:32:22.107Z,4.83
2024-04-18T06:34:48.949Z,5.02
2024-04-18T06:37:16.121Z,5.28
2024-04-18T06:39:43.057Z,5.63
2024-04-18T06:42:09.956Z,6.04
2024-04-18T06:44:37.449Z,6.52
2024-04-18T06:47:04.462Z,7.19
2024-04-18T06:49:31.243Z,7.54
2024-04-18T06:51:58.108Z,7.83
2024-04-18T06:54:28.013Z,7.87
2024-04-18T06:56:55.756Z,7.93
2024-04-18T06:59:22.498Z,8.23
2024-04-18T07:01:49.246Z,8.74
2024-04-18T07:04:16.079Z,9.26
2024-04-18T07:06:42.917Z,8.74
2024-04-18T07:09:09.882Z,8.31
2024-04-18T07:11:36.652Z,8.00
2024-04-18T07:14:03.437Z,7.90
2024-04-18T07:16:30.222Z,7.94
2024-04-18T07:18:57.236Z,8.96
2024-04-18T07:21:24.066Z,9.04
2024-04-18T07:23:50.935Z,9.46
2024-04-18T07:26:17.863Z,9.49
2024-04-18T07:28:44.638Z,9.89
2024-04-18T07:31:11.339Z,10.69
2024-04-18T07:33:38.663Z,11.34
2024-04-18T07:36:05.793Z,11.82
2024-04-18T07:38:32.508Z,12.02
2024-04-18T07:40:59.294Z,12.50
2024-04-18T07:43:26.026Z,12.87
2024-04-18T07:45:52.885Z,13.23
2024-04-18T07:48:19.763Z,13.34
2024-04-18T07:50:46.524Z,13.77
2024-04-18T07:53:13.223Z,14.06
2024-04-18T07:55:42.709Z,13.94
2024-04-18T07:58:10.211Z,13.96
2024-04-18T08:00:38.438Z,14.36
2024-04-18T08:03:09.477Z,14.68
2024-04-18T08:05:40.240Z,14.62
2024-04-18T08:08:10.721Z,15.05
2024-04-18T08:10:52.965Z,15.21
2024-04-18T08:13:30.311Z,15.61
2024-04-18T08:16:02.295Z,15.61
2024-04-18T08:18:29.098Z,15.57
2024-04-18T08:20:58.009Z,15.84
2024-04-18T08:23:27.945Z,16.09
2024-04-18T08:25:55.227Z,16.46
2024-04-18T08:28:22.081Z,16.46
2024-04-18T08:30:48.906Z,16.75
2024-04-18T08:33:15.978Z,15.49
2024-04-18T08:35:45.793Z,14.74
2024-04-18T08:38:13.545Z,15.53
2024-04-18T08:40:45.843Z,16.25
2024-04-18T08:43:13.354Z,16.23
2024-04-18T08:45:42.128Z,16.65
2024-04-18T08:48:11.884Z,15.74
2024-04-18T08:50:43.009Z,15.42
2024-04-18T08:53:10.959Z,15.38
2024-04-18T08:55:40.350Z,16.57
2024-04-18T08:58:09.113Z,16.39
2024-04-18T09:00:35.888Z,17.21
2024-04-18T09:03:03.149Z,17.09
2024-04-18T09:05:30.033Z,15.88
2024-04-18T09:07:56.828Z,14.59
2024-04-18T09:10:27.710Z,13.47
2024-04-18T09:12:55.693Z,12.92
2024-04-18T09:15:24.874Z,12.46
2024-04-18T09:18:08.701Z,12.81
2024-04-18T09:20:38.346Z,14.60
2024-04-18T09:23:05.452Z,15.83
2024-04-18T09:25:38.411Z,15.44
2024-04-18T09:28:06.532Z,15.82
2024-04-18T09:30:33.563Z,15.32
2024-04-18T09:33:06.639Z,15.16
2024-04-18T09:35:36.991Z,16.19
2024-04-18T09:38:10.215Z,15.94
2024-04-18T09:40:42.426Z,14.59
2024-04-18T09:43:32.782Z,13.43
2024-04-18T09:46:06.628Z,12.52
2024-04-18T09:48:34.489Z,11.92
2024-04-18T09:51:03.915Z,11.39
2024-04-18T09:53:34.246Z,10.99
2024-04-18T09:56:01.720Z,10.70
2024-04-18T09:58:29.227Z,11.11
2024-04-18T10:00:57.532Z,12.97
2024-04-18T10:03:29.510Z,14.72
2024-04-18T10:06:02.066Z,16.18
2024-04-18T10:08:33.981Z,17.16
2024-04-18T10:11:01.669Z,18.07
2024-04-18T10:13:29.189Z,18.54
2024-04-18T10:16:11.836Z,17.57
2024-04-18T10:18:40.686Z,17.53
2024-04-18T10:21:36.479Z,16.11
2024-04-18T10:24:11.085Z,15.15
2024-04-18T10:26:38.891Z,15.44
2024-04-18T10:29:22.057Z,15.98
2024-04-18T10:31:48.927Z,16.27
2024-04-18T10:34:15.659Z,15.20
2024-04-18T10:36:44.949Z,14.18
2024-04-18T10:39:31.705Z,13.35
2024-04-18T10:42:11.922Z,12.87
2024-04-18T10:44:39.364Z,12.55
2024-04-18T10:47:07.351Z,12.44
2024-04-18T10:49:35.145Z,12.33
2024-04-18T10:52:02.447Z,12.37
2024-04-18T10:54:29.242Z,12.55
2024-04-18T10:56:56.670Z,12.62
2024-04-18T10:59:26.120Z,12.70
2024-04-18T11:02:03.695Z,14.16
2024-04-18T11:04:30.593Z,14.85
2024-04-18T11:06:57.343Z,16.61
2024-04-18T11:09:26.406Z,17.47
2024-04-18T11:11:54.050Z,15.82
2024-04-18T11:14:26.796Z,14.64
2024-04-18T11:16:57.971Z,14.42
2024-04-18T11:19:28.650Z,15.24
2024-04-18T11:21:55.383Z,14.49
2024-04-18T11:24:28.239Z,13.96
2024-04-18T11:26:58.057Z,14.76
2024-04-18T11:29:28.779Z,16.01
2024-04-18T11:32:09.001Z,17.12
2024-04-18T11:34:38.442Z,16.95
2024-04-18T11:37:08.857Z,16.98
2024-04-18T11:39:35.621Z,16.04
2024-04-18T11:42:02.570Z,15.36
2024-04-18T11:44:30.711Z,14.79
2024-04-18T11:46:58.466Z,14.51
2024-04-18T11:49:25.527Z,15.75
2024-04-18T11:51:52.440Z,16.17
2024-04-18T11:54:19.258Z,16.02
2024-04-18T11:56:47.070Z,16.58
2024-04-18T11:59:15.259Z,17.07
2024-04-18T12:01:42.013Z,16.30
2024-04-18T12:04:08.958Z,15.41
2024-04-18T12:06:36.133Z,15.79
2024-04-18T12:09:02.904Z,16.13
2024-04-18T12:11:31.670Z,15.23
2024-04-18T12:13:58.622Z,15.89
2024-04-18T12:16:26.041Z,14.67
2024-04-18T12:18:53.005Z,14.07
2024-04-18T12:21:19.771Z,14.27
2024-04-18T12:23:46.479Z,15.43
2024-04-18T12:26:13.578Z,14.95
2024-04-18T12:28:40.349Z,14.60
2024-04-18T12:31:07.144Z,15.43
2024-04-18T12:33:33.917Z,16.10
2024-04-18T12:36:00.766Z,16.76
2024-04-18T12:38:27.563Z,17.23
2024-04-18T12:40:54.304Z,17.41
2024-04-18T12:43:21.082Z,17.80
2024-04-18T12:45:48.059Z,17.79
2024-04-18T12:48:15.191Z,17.50
2024-04-18T12:50:42.020Z,17.26
2024-04-18T12:53:08.794Z,17.00
2024-04-18T12:55:36.933Z,17.21
2024-04-18T12:58:05.442Z,16.93
2024-04-18T13:00:32.435Z,16.98
2024-04-18T13:02:59.399Z,15.90
2024-04-18T13:05:26.413Z,16.70
2024-04-18T13:07:56.576Z,16.93
2024-04-18T13:10:24.679Z,16.65
2024-04-18T13:12:51.424Z,16.51
2024-04-18T13:15:18.304Z,16.47
2024-04-18T13:17:46.164Z,15.35
2024-04-18T13:20:12.993Z,16.13
2024-04-18T13:22:39.805Z,16.30
2024-04-18T13:25:06.522Z,16.36
2024-04-18T13:27:33.357Z,15.66
2024-04-18T13:30:00.369Z,15.86
2024-04-18T13:32:27.291Z,15.81
2024-04-18T13:34:55.833Z,15.26
2024-04-18T13:37:22.649Z,15.02
2024-04-18T13:39:51.801Z,15.14
2024-04-18T13:42:19.459Z,14.96
2024-04-18T13:44:46.303Z,15.57
2024-04-18T13:47:13.234Z,15.83
2024-04-18T13:49:40.014Z,14.75
2024-04-18T13:52:09.623Z,13.99
2024-04-18T13:54:36.624Z,14.19
2024-04-18T13:57:06.568Z,14.58
2024-04-18T13:59:33.677Z,14.84
2024-04-18T14:02:04.076Z,14.29
2024-04-18T14:04:30.994Z,13.55
2024-04-18T14:06:57.764Z,14.42
2024-04-18T14:09:33.566Z,13.87
2024-04-18T14:12:00.401Z,13.49
2024-04-18T14:14:29.558Z,14.10
2024-04-18T14:17:14.909Z,14.15
2024-04-18T14:19:41.742Z,14.29
2024-04-18T14:22:08.523Z,14.53
2024-04-18T14:24:35.770Z,13.72
2024-04-18T14:27:03.243Z,13.45
2024-04-18T14:29:30.266Z,13.73
2024-04-18T14:31:59.285Z,13.97
2024-04-18T14:34:27.985Z,14.31
2024-04-18T14:36:56.898Z,14.31
2024-04-18T14:39:26.211Z,13.48
2024-04-18T14:41:54.018Z,13.90
2024-04-18T14:44:20.787Z,14.20
2024-04-18T14:46:47.520Z,13.06
2024-04-18T14:49:14.357Z,13.35
2024-04-18T14:51:41.250Z,13.42
2024-04-18T14:54:08.228Z,13.54
2024-04-18T14:56:35.025Z,13.79
2024-04-18T14:59:02.558Z,13.23
2024-04-18T15:01:29.383Z,13.68
2024-04-18T15:03:56.354Z,13.52
2024-04-18T15:06:23.229Z,13.48
2024-04-18T15:08:50.004Z,13.42
2024-04-18T15:11:16.954Z,13.33
2024-04-18T15:13:43.738Z,13.08
2024-04-18T15:16:10.786Z,12.95
2024-04-18T15:18:37.848Z,13.16
2024-04-18T15:21:04.812Z,13.12
2024-04-18T15:23:31.709Z,13.12
2024-04-18T15:25:58.460Z,12.66
2024-04-18T15:28:30.527Z,12.77
2024-04-18T15:30:59.236Z,12.76
2024-04-18T15:33:26.059Z,12.48
2024-04-18T15:35:56.031Z,12.62
2024-04-18T15:38:22.775Z,12.61
2024-04-18T15:40:49.490Z,12.79
2024-04-18T15:43:16.196Z,12.96
2024-04-18T15:45:43.045Z,12.87
2024-04-18T15:48:10.034Z,12.82
2024-04-18T15:50:37.069Z,12.44
2024-04-18T15:53:03.947Z,12.43
2024-04-18T15:55:31.200Z,11.90
2024-04-18T15:57:59.584Z,12.06
2024-04-18T16:00:26.387Z,11.98
2024-04-18T16:02:56.475Z,11.92
2024-04-18T16:05:26.297Z,11.79
2024-04-18T16:07:53.129Z,11.65
2024-04-18T16:10:19.953Z,11.72
2024-04-18T16:12:46.770Z,11.94
2024-04-18T16:15:14.940Z,11.81
2024-04-18T16:17:44.929Z,11.89
2024-04-18T16:20:15.524Z,11.74
2024-04-18T16:22:43.336Z,11.65
2024-04-18T16:25:10.102Z,11.57
2024-04-18T16:27:37.231Z,11.63
2024-04-18T16:30:04.534Z,11.47
2024-04-18T16:32:31.310Z,11.54
2024-04-18T16:34:58.189Z,11.31
2024-04-18T16:37:25.475Z,11.21
2024-04-18T16:39:52.344Z,10.98
2024-04-18T16:42:19.244Z,10.97
2024-04-18T16:44:46.099Z,10.89
2024-04-18T16:47:12.859Z,10.65
2024-04-18T16:49:42.010Z,10.69
2024-04-18T16:52:10.982Z,10.68
2024-04-18T16:54:38.504Z,10.68
2024-04-18T16:57:05.734Z,10.64
2024-04-18T16:59:32.776Z,10.42
2024-04-18T17:01:59.448Z,10.39
2024-04-18T17:04:26.407Z,10.44
2024-04-18T17:06:55.843Z,10.35
2024-04-18T17:09:22.699Z,10.27
2024-04-18T17:11:49.577Z,10.17
2024-04-18T17:14:16.601Z,10.06
2024-04-18T17:16:43.364Z,10.07
2024-04-18T17:19:10.144Z,10.01
2024-04-18T17:21:40.200Z,9.89
2024-04-18T17:24:07.069Z,9.92
2024-04-18T17:26:33.916Z,9.86
2024-04-18T17:29:01.123Z,9.73
2024-04-18T17:31:31.010Z,9.62
2024-04-18T17:33:57.841Z,9.58
2024-04-18T17:36:24.911Z,9.53
2024-04-18T17:38:51.918Z,9.47
2024-04-18T17:41:18.601Z,9.39
2024-04-18T17:43:47.260Z,9.34
2024-04-18T17:46:14.106Z,9.32
2024-04-18T17:48:41.018Z,9.21
2024-04-18T17:51:07.777Z,9.21
2024-04-18T17:53:34.564Z,9.12
2024-04-18T17:56:01.342Z,9.11
2024-04-18T17:58:28.087Z,9.08
2024-04-18T18:00:55.062Z,9.02
2024-04-18T18:03:22.510Z,8.96
2024-04-18T18:05:49.338Z,8.93
2024-04-18T18:08:17.941Z,8.86
2024-04-18T18:10:44.839Z,8.81
2024-04-18T18:13:13.935Z,8.74
2024-04-18T18:15:40.824Z,8.67
2024-04-18T18:18:08.066Z,8.65
2024-04-18T18:20:36.158Z,8.62
2024-04-18T18:23:02.907Z,8.60
2024-04-18T18:25:29.645Z,8.56
2024-04-18T18:27:56.432Z,8.48
2024-04-18T18:30:23.248Z,8.47
2024-04-18T18:32:50.087Z,8.38
2024-04-18T18:35:16.979Z,8.36
2024-04-18T18:37:43.628Z,8.31
2024-04-18T18:40:11.020Z,8.27
2024-04-18T18:42:38.212Z,8.25
2024-04-18T18:45:10.469Z,8.22
2024-04-18T18:47:37.905Z,8.22
2024-04-18T18:50:04.943Z,8.17
2024-04-18T18:52:31.646Z,8.21
2024-04-18T18:54:59.637Z,8.24
2024-04-18T18:57:26.424Z,8.22
2024-04-18T18:59:53.076Z,8.20
2024-04-18T19:02:19.941Z,8.22
2024-04-18T19:04:47.595Z,8.20
2024-04-18T19:07:14.355Z,8.18
2024-04-18T19:09:42.544Z,8.21
2024-04-18T19:12:09.767Z,8.19
2024-04-18T19:14:36.574Z,8.17
2024-04-18T19:17:03.921Z,8.19
2024-04-18T19:19:31.189Z,8.15
2024-04-18T19:21:57.973Z,8.14
2024-04-18T19:24:27.802Z,8.17
2024-04-18T19:26:54.577Z,8.18
2024-04-18T19:29:27.391Z,8.18
2024-04-18T19:32:03.102Z,8.20
2024-04-18T19:34:29.924Z,8.20
2024-04-18T19:36:56.718Z,8.18
2024-04-18T19:39:25.877Z,8.15
2024-04-18T19:41:52.735Z,8.13
2024-04-18T19:44:19.419Z,8.12
2024-04-18T19:46:46.219Z,8.14
2024-04-18T19:49:13.753Z,8.15
2024-04-18T19:51:40.655Z,8.11
2024-04-18T19:54:07.585Z,8.13
2024-04-18T19:56:34.343Z,8.09
2024-04-18T19:59:01.030Z,8.09
2024-04-18T20:01:27.922Z,8.09
2024-04-18T20:03:55.081Z,8.08
2024-04-18T20:06:22.187Z,8.06
2024-04-18T20:08:49.227Z,8.06
2024-04-18T20:11:16.163Z,8.08
2024-04-18T20:13:42.961Z,8.05
2024-04-18T20:16:11.633Z,8.03
2024-04-18T20:18:38.735Z,8.05
2024-04-18T20:21:05.665Z,8.07
2024-04-18T20:23:32.441Z,8.04
2024-04-18T20:25:59.226Z,8.07
2024-04-18T20:28:25.956Z,8.04
2024-04-18T20:30:52.852Z,8.02
2024-04-18T20:33:19.732Z,8.02
2024-04-18T20:35:46.519Z,8.05
2024-04-18T20:38:13.402Z,8.07
2024-04-18T20:40:41.379Z,8.10
2024-04-18T20:43:08.526Z,8.12
2024-04-18T20:45:35.399Z,8.14
2024-04-18T20:48:02.373Z,8.15
2024-04-18T20:50:29.216Z,8.21
2024-04-18T20:52:55.916Z,8.21
2024-04-18T20:55:22.738Z,8.26
2024-04-18T20:57:49.711Z,8.27
2024-04-18T21:00:28.923Z,8.21
2024-04-18T21:02:55.899Z,8.31
2024-04-18T21:05:22.773Z,8.17
2024-04-18T21:07:49.721Z,8.20
2024-04-18T21:10:16.541Z,8.23
2024-04-18T21:12:43.506Z,8.22
2024-04-18T21:15:10.492Z,8.29
2024-04-18T21:17:37.446Z,8.37
2024-04-18T21:20:04.479Z,8.36
2024-04-18T21:22:32.435Z,8.30
2024-04-18T21:24:59.327Z,8.30
2024-04-18T21:27:26.258Z,8.25
2024-04-18T21:29:52.954Z,8.14
2024-04-18T21:32:24.358Z,8.15
2024-04-18T21:34:51.112Z,8.17
2024-04-18T21:37:17.976Z,8.14
2024-04-18T21:39:45.924Z,8.16
2024-04-18T21:42:12.772Z,8.19
2024-04-18T21:44:39.595Z,8.30
2024-04-18T21:47:06.528Z,8.26
2024-04-18T21:49:33.265Z,8.28
2024-04-18T21:52:00.063Z,8.34
2024-04-18T21:54:26.803Z,8.33
2024-04-18T21:56:53.797Z,8.34
2024-04-18T21:59:20.518Z,8.31
2024-04-18T22:01:47.306Z,8.26
2024-04-18T22:04:14.216Z,8.23
2024-04-18T22:06:41.353Z,8.21
2024-04-18T22:09:08.168Z,8.22
2024-04-18T22:11:35.031Z,8.21
2024-04-18T22:14:01.896Z,8.17
2024-04-18T22:16:28.626Z,8.13
2024-04-18T22:18:55.559Z,8.11
2024-04-18T22:21:22.337Z,8.07
2024-04-18T22:23:52.085Z,8.01
2024-04-18T22:26:19.587Z,8.02
2024-04-18T22:28:46.348Z,7.96
2024-04-18T22:31:14.162Z,7.93
2024-04-18T22:33:41.335Z,7.86
2024-04-18T22:36:08.520Z,7.82
2024-04-18T22:38:35.384Z,7.82
2024-04-18T22:41:02.132Z,7.79
2024-04-18T22:43:28.973Z,7.77
2024-04-18T22:45:55.742Z,7.78
2024-04-18T22:48:22.834Z,7.75
2024-04-18T22:50:49.794Z,7.73
2024-04-18T22:53:16.477Z,7.71
2024-04-18T22:55:43.261Z,7.71
2024-04-18T22:58:11.449Z,7.70
2024-04-18T23:00:39.455Z,7.67
2024-04-18T23:03:07.331Z,7.65
2024-04-18T23:05:34.375Z,7.62
2024-04-18T23:08:01.087Z,7.63
2024-04-18T23:10:27.797Z,7.59
2024-04-18T23:12:54.729Z,7.59
2024-04-18T23:15:21.439Z,7.59
2024-04-18T23:17:48.337Z,7.62
2024-04-18T23:20:15.094Z,7.63
2024-04-18T23:22:41.872Z,7.68
2024-04-18T23:25:08.630Z,7.72
2024-04-18T23:27:35.398Z,7.77
2024-04-18T23:30:03.622Z,7.73
2024-04-18T23:32:30.973Z,7.77
2024-04-18T23:34:59.081Z,7.76
2024-04-18T23:37:25.995Z,7.69
2024-04-18T23:39:52.828Z,7.68
2024-04-18T23:42:19.648Z,7.69
2024-04-18T23:44:46.589Z,7.67
2024-04-18T23:47:13.358Z,7.67
2024-04-18T23:49:40.224Z,7.65
2024-04-18T23:52:07.034Z,7.53
2024-04-18T23:54:33.762Z,7.63
2024-04-18T23:57:00.545Z,7.61
2024-04-18T23:59:28.603Z,7.55
